Airfield :







YOU CAN JOIN US ON...

 
LOGIN :

Register | Disclaimer

   EN    FR    IT 

 









Legend :    VFR   Marginal VFR   IFR   Intensive IFR   Very Intensive IFR
Visi :
Ceiling :
>= 8 km
>= 3000ft
5 to 8 km
1000 to 3000 ft
1500m to 5 km
500 to 1000 ft
800 to 1500m
200 to 500 ft
< 800m
< 200 ft
Symbols :   Thunderstorms  Fog  Heavy snow  Heavy precipitations  Wind > 20 kt







- Airport Elevation : 1166 ft


KMPV - Edward F Knapp State

CURRENT METAR :
  • 171751Z AUTO 21006KT 10SM FEW024 SCT045 25/20 A2995 RMK AO2 SLP135 60005 T02500200 10256 20206 55001

EXPIRED METARs :
  • 171651Z AUTO 26004KT 10SM SCT024 BKN042 26/21 A2994 RMK AO2 SLP131 T02560206
  • 171551Z AUTO 27005KT 10SM CLR 24/22 A2995 RMK AO2 SLP137 T02440217

TAF KMPV
Valid from the 17 at 18:00 until the 18 at 18:00 UTC


171739Z 1718/1818 27005KT P6SM VCSH BKN045
TEMPO 1718/1722 4SM TSRA BR BKN025CB
FM180500 00000KT 3SM BR SCT080
FM181300 15005KT P6SM BKN045
KZBW FIR / North America



MET'MAP, your aeronautical weather chart ! - Copyright ORBIFLY December 2007 - Disclaimer

ORBIFLY MET'MAP TEAM :

Programming & Development : Alexandra Zaïnal
Concept & Development : Baudouin d'Aumeries
Co-Development & Prog : Marc-Olivier Méhu
Technical & hardware support : Manuel Goepfert

Contact : metmap@orbifly.com




SOURCES & CREDITS :

   NOAA